Time;durP1;ratioP1;P1;durP2;ratioP2;P2;SDS_P1;SDS_P2;PMS_P1;PMS_P2;Temp;Humidity;BMP_temperature;BMP_pressure;BME280_temperature;BME280_humidity;BME280_pressure;Samples;Min_cycle;Max_cycle;Signal;HPM_P1;HPM_P2
2022/08/15 00:01:00;;;;;;;7.22;5.65;;;20.60;99.90;;;;;;5054621;28;20044;-85
2022/08/15 00:03:33;;;;;;;7.13;6.03;;;20.60;99.90;;;;;;5050861;28;20106;-81
2022/08/15 00:06:03;;;;;;;9.45;5.95;;;20.60;99.90;;;;;;5042655;28;20041;-85
2022/08/15 00:08:31;;;;;;;8.25;5.45;;;20.50;99.90;;;;;;5049406;28;20090;-85
2022/08/15 00:11:03;;;;;;;6.18;5.30;;;20.50;99.90;;;;;;5048819;28;20041;-85
2022/08/15 00:13:30;;;;;;;7.78;6.05;;;20.50;99.90;;;;;;5048720;28;20084;-85
2022/08/15 00:15:56;;;;;;;10.57;7.35;;;20.40;99.90;;;;;;5049125;28;20480;-85
2022/08/15 00:18:25;;;;;;;11.70;7.95;;;20.40;99.90;;;;;;5048840;28;20047;-85
2022/08/15 00:20:51;;;;;;;9.70;8.48;;;20.40;99.90;;;;;;5048680;28;20064;-83
2022/08/15 00:23:20;;;;;;;9.80;6.82;;;20.30;99.90;;;;;;5049138;28;20712;-84
2022/08/15 00:25:47;;;;;;;7.97;6.35;;;20.30;99.90;;;;;;5049354;28;20384;-85
2022/08/15 00:28:14;;;;;;;10.07;7.40;;;20.30;99.90;;;;;;5030555;28;20103;-85
2022/08/15 00:30:41;;;;;;;9.02;8.00;;;20.20;99.90;;;;;;5031042;28;20047;-87
2022/08/15 00:33:07;;;;;;;12.20;8.73;;;20.30;99.90;;;;;;5030789;28;20443;-89
2022/08/15 00:35:36;;;;;;;8.90;7.97;;;20.20;99.90;;;;;;5048511;28;20048;-88
2022/08/15 00:38:13;;;;;;;11.40;9.57;;;20.20;99.90;;;;;;5030900;28;20490;-84
2022/08/15 00:43:57;;;;;;;12.07;10.17;;;20.20;99.90;;;;;;4962354;28;20050;-85
2022/08/15 00:46:25;;;;;;;15.07;10.50;;;20.20;99.90;;;;;;4967393;28;20451;-85
2022/08/15 00:48:51;;;;;;;14.02;10.63;;;20.20;99.90;;;;;;4991531;28;20209;-86
2022/08/15 00:51:26;;;;;;;19.42;12.13;;;20.20;99.90;;;;;;4989548;28;20128;-86
2022/08/15 00:53:58;;;;;;;13.43;10.75;;;20.20;99.90;;;;;;5006204;28;20053;-86
2022/08/15 00:56:31;;;;;;;13.65;11.00;;;20.30;99.90;;;;;;4989619;28;20421;-86
2022/08/15 00:58:58;;;;;;;14.80;12.07;;;20.20;99.90;;;;;;4990142;28;20049;-87
2022/08/15 01:01:24;;;;;;;13.30;11.45;;;20.20;99.90;;;;;;5006214;28;20068;-88
2022/08/15 01:03:52;;;;;;;21.10;11.60;;;20.30;99.90;;;;;;5005881;28;20073;-88
2022/08/15 01:06:19;;;;;;;15.15;12.35;;;20.20;99.90;;;;;;5006343;28;20058;-88
2022/08/15 01:08:46;;;;;;;16.70;12.23;;;20.30;99.90;;;;;;5006053;28;20108;-86
2022/08/15 01:11:26;;;;;;;14.68;11.45;;;20.20;99.90;;;;;;5008262;28;20053;-85
2022/08/15 01:13:54;;;;;;;17.30;11.68;;;20.20;99.90;;;;;;5010294;28;20058;-85
2022/08/15 01:16:23;;;;;;;16.83;12.25;;;20.20;99.90;;;;;;5014128;28;20093;-85
2022/08/15 01:18:51;;;;;;;15.23;11.60;;;20.20;99.90;;;;;;5029130;28;20048;-84
2022/08/15 01:21:36;;;;;;;13.57;11.60;;;20.10;99.90;;;;;;5068100;28;20045;-81
2022/08/15 01:24:20;;;;;;;;;;;20.10;99.90;;;;;;5083832;28;20052;-87
2022/08/15 01:26:46;;;;;;;13.27;10.82;;;20.00;99.90;;;;;;5084211;28;19971;-86
2022/08/15 01:29:18;;;;;;;14.25;11.18;;;20.00;99.90;;;;;;5066038;28;20083;-84
2022/08/15 01:31:45;;;;;;;15.00;11.98;;;20.00;99.90;;;;;;5065217;28;20162;-84
2022/08/15 01:34:10;;;;;;;16.20;11.45;;;20.00;99.90;;;;;;5071232;28;20143;-82
2022/08/15 01:36:36;;;;;;;15.88;11.57;;;20.10;99.90;;;;;;5065013;28;20119;-85
2022/08/15 01:39:14;;;;;;;11.38;9.93;;;19.90;99.90;;;;;;5065403;28;20032;-80
2022/08/15 01:41:57;;;;;;;17.35;10.02;;;19.80;99.90;;;;;;5037980;28;20052;-85
2022/08/15 01:44:30;;;;;;;11.57;10.10;;;19.80;99.90;;;;;;5053773;28;20037;-83
2022/08/15 01:47:13;;;;;;;13.48;10.73;;;19.70;99.90;;;;;;5065481;28;20066;-80
2022/08/15 01:49:55;;;;;;;15.23;10.20;;;19.70;99.90;;;;;;5064056;28;20392;-83
2022/08/15 01:52:26;;;;;;;13.50;10.20;;;19.50;99.90;;;;;;5053320;28;20128;-86
2022/08/15 01:54:54;;;;;;;15.95;9.98;;;19.70;99.90;;;;;;5071295;28;20533;-85
2022/08/15 01:57:21;;;;;;;13.30;11.90;;;19.60;99.90;;;;;;5071088;28;20521;-82
2022/08/15 01:59:55;;;;;;;14.45;12.43;;;19.60;99.90;;;;;;5071555;28;20033;-82
2022/08/15 02:02:21;;;;;;;12.68;10.60;;;19.90;99.90;;;;;;5053441;28;20053;-79
2022/08/15 02:04:46;;;;;;;15.27;10.85;;;19.60;99.90;;;;;;5070614;28;21398;-84
2022/08/15 02:07:18;;;;;;;14.60;10.77;;;19.60;99.90;;;;;;5068621;28;20091;-85
2022/08/15 02:09:46;;;;;;;17.08;11.70;;;19.60;99.90;;;;;;5053077;28;20154;-81
2022/08/15 02:12:14;;;;;;;18.38;11.52;;;19.60;99.90;;;;;;5062701;28;20060;-85
2022/08/15 02:14:41;;;;;;;15.38;11.90;;;19.60;99.90;;;;;;5050531;28;20049;-82
2022/08/15 02:17:09;;;;;;;13.05;11.65;;;19.70;99.90;;;;;;5071361;28;20072;-82
2022/08/15 02:19:37;;;;;;;17.88;12.07;;;19.70;99.90;;;;;;5070791;28;20147;-81
2022/08/15 02:22:04;;;;;;;14.48;11.35;;;19.70;99.90;;;;;;5064907;28;20039;-85
2022/08/15 02:24:30;;;;;;;17.90;10.95;;;19.70;99.90;;;;;;5070849;28;20049;-85
2022/08/15 02:26:55;;;;;;;18.33;12.93;;;19.70;99.90;;;;;;5044883;28;20103;-82
2022/08/15 02:29:25;;;;;;;18.63;13.82;;;19.70;99.90;;;;;;5064427;28;20056;-82
2022/08/15 02:31:54;;;;;;;28.00;12.98;;;19.70;99.90;;;;;;5071147;28;20594;-79
2022/08/15 02:34:20;;;;;;;20.35;13.40;;;19.70;99.90;;;;;;5071115;28;20041;-83
2022/08/15 02:36:46;;;;;;;15.55;13.25;;;19.80;99.90;;;;;;5052409;28;20778;-79
2022/08/15 02:39:12;;;;;;;17.45;13.00;;;19.70;99.90;;;;;;5050990;28;20044;-85
2022/08/15 02:41:51;;;;;;;15.63;14.07;;;19.70;99.90;;;;;;5052512;28;20106;-79
2022/08/15 02:44:21;;;;;;;14.88;13.23;;;19.70;99.90;;;;;;5068546;28;20044;-80
2022/08/15 02:46:49;;;;;;;14.90;13.27;;;19.70;99.90;;;;;;5064898;28;20040;-85
2022/08/15 02:49:16;;;;;;;18.00;13.65;;;19.70;99.90;;;;;;5069879;28;20033;-85
2022/08/15 02:51:42;;;;;;;15.77;13.50;;;19.80;99.90;;;;;;5070610;28;20045;-84
2022/08/15 02:54:11;;;;;;;14.82;12.60;;;19.80;99.90;;;;;;5070395;28;20140;-85
2022/08/15 02:56:36;;;;;;;17.35;13.27;;;19.90;99.90;;;;;;5043995;28;20047;-86
2022/08/15 02:59:03;;;;;;;18.45;14.35;;;20.00;99.90;;;;;;5070433;28;20037;-85
2022/08/15 03:01:30;;;;;;;17.73;13.90;;;19.80;99.90;;;;;;5070002;28;20045;-78
2022/08/15 03:03:57;;;;;;;20.35;13.32;;;19.80;99.90;;;;;;5052110;28;20496;-82
2022/08/15 03:06:32;;;;;;;17.08;12.23;;;19.70;99.90;;;;;;5069327;28;20094;-75
2022/08/15 03:09:00;;;;;;;16.17;13.15;;;19.90;99.90;;;;;;5069665;28;20487;-85
2022/08/15 03:11:27;;;;;;;18.20;13.50;;;19.90;99.90;;;;;;5069584;28;20040;-83
2022/08/15 03:13:54;;;;;;;17.05;14.10;;;19.90;99.90;;;;;;5069942;28;20438;-85
2022/08/15 03:16:20;;;;;;;15.60;13.98;;;19.90;99.90;;;;;;5051201;28;20055;-85
2022/08/15 03:18:46;;;;;;;14.90;13.25;;;19.90;99.90;;;;;;5070105;28;20044;-84
2022/08/15 03:21:19;;;;;;;17.48;13.20;;;19.90;99.90;;;;;;5067685;28;20044;-82
2022/08/15 03:23:49;;;;;;;14.65;12.70;;;19.90;99.90;;;;;;5051739;28;20052;-82
2022/08/15 03:26:20;;;;;;;15.05;12.93;;;20.00;99.90;;;;;;5069790;28;20042;-85
2022/08/15 03:28:46;;;;;;;14.35;12.95;;;20.00;99.90;;;;;;5069187;28;20415;-84
2022/08/15 03:31:13;;;;;;;20.00;13.80;;;20.00;99.90;;;;;;5069650;28;20040;-81
2022/08/15 03:33:40;;;;;;;19.13;13.27;;;20.00;99.90;;;;;;5069181;28;20136;-89
2022/08/15 03:36:08;;;;;;;17.08;13.13;;;20.00;99.90;;;;;;5051077;28;20053;-79
2022/08/15 03:38:34;;;;;;;16.52;12.88;;;20.00;99.90;;;;;;5068663;28;20076;-80
2022/08/15 03:41:00;;;;;;;15.20;13.15;;;20.10;99.90;;;;;;5069880;28;20083;-86
2022/08/15 03:43:30;;;;;;;15.50;12.93;;;20.00;99.90;;;;;;5051663;28;20036;-89
2022/08/15 03:45:59;;;;;;;16.75;13.55;;;20.00;99.90;;;;;;5069449;28;20036;-86
2022/08/15 03:48:29;;;;;;;15.73;14.02;;;20.00;99.90;;;;;;5063583;28;20464;-88
2022/08/15 03:50:59;;;;;;;16.25;13.10;;;19.80;99.90;;;;;;5051227;28;20052;-86
2022/08/15 03:53:33;;;;;;;16.23;13.07;;;19.90;99.90;;;;;;5051206;28;20052;-84
2022/08/15 03:56:01;;;;;;;18.00;13.90;;;19.90;99.90;;;;;;5068764;28;20044;-81
2022/08/15 03:58:28;;;;;;;23.77;13.63;;;19.90;99.90;;;;;;5069168;28;20044;-87
2022/08/15 04:00:54;;;;;;;18.73;13.32;;;19.90;99.90;;;;;;5064970;28;20066;-87
2022/08/15 04:03:23;;;;;;;15.63;13.02;;;19.90;99.90;;;;;;5069318;28;20078;-91
2022/08/15 04:05:55;;;;;;;15.85;13.27;;;19.80;99.90;;;;;;5051370;28;20070;-90
2022/08/15 04:08:23;;;;;;;15.55;12.73;;;19.80;99.90;;;;;;5068846;28;20044;-87
2022/08/15 04:10:51;;;;;;;18.20;12.75;;;19.70;99.90;;;;;;5050847;28;20048;-80
2022/08/15 04:13:20;;;;;;;13.60;12.13;;;19.70;99.90;;;;;;5050792;28;20119;-82
2022/08/15 04:15:48;;;;;;;17.80;13.77;;;19.70;99.90;;;;;;5069392;28;20132;-87
2022/08/15 04:18:14;;;;;;;14.95;11.43;;;19.60;99.90;;;;;;5068823;28;20496;-84
2022/08/15 04:20:40;;;;;;;16.35;12.18;;;19.60;99.90;;;;;;5051124;28;20040;-89
2022/08/15 04:23:07;;;;;;;16.27;11.73;;;19.50;99.90;;;;;;5041881;28;20671;-76
2022/08/15 04:25:36;;;;;;;16.42;12.27;;;19.50;99.90;;;;;;5051062;28;20048;-81
2022/08/15 04:28:03;;;;;;;14.50;12.25;;;19.50;99.90;;;;;;5060104;28;20048;-85
2022/08/15 04:30:40;;;;;;;14.13;11.70;;;19.50;99.90;;;;;;5065573;28;20040;-82
2022/08/15 04:33:12;;;;;;;16.85;12.18;;;19.40;99.90;;;;;;5068697;28;20055;-90
2022/08/15 04:35:40;;;;;;;17.25;13.30;;;19.40;99.90;;;;;;5068479;28;20098;-87
2022/08/15 04:38:07;;;;;;;16.73;13.35;;;19.40;99.90;;;;;;5050357;28;20071;-87
2022/08/15 04:40:33;;;;;;;15.05;12.95;;;19.40;99.90;;;;;;5061683;28;20040;-86
2022/08/15 04:43:00;;;;;;;16.35;12.68;;;19.40;99.90;;;;;;5051705;28;20083;-86
2022/08/15 04:45:30;;;;;;;16.35;13.13;;;19.30;99.90;;;;;;5080840;28;20053;-82
2022/08/15 04:47:56;;;;;;;12.50;11.30;;;19.40;99.90;;;;;;5074815;28;20079;-79
2022/08/15 04:50:22;;;;;;;14.90;10.43;;;19.40;99.90;;;;;;5085438;28;20549;-85
2022/08/15 04:52:51;;;;;;;12.77;10.13;;;19.40;99.90;;;;;;5082329;28;20045;-81
2022/08/15 04:55:19;;;;;;;14.05;11.23;;;19.40;99.90;;;;;;5051585;28;20040;-85
2022/08/15 04:57:46;;;;;;;11.70;10.50;;;19.30;99.90;;;;;;5055638;28;20053;-85
2022/08/15 05:00:14;;;;;;;13.88;11.57;;;19.30;99.90;;;;;;5072528;28;20060;-86
2022/08/15 05:02:41;;;;;;;14.55;12.15;;;19.30;99.90;;;;;;5072406;28;20088;-87
2022/08/15 05:05:09;;;;;;;18.05;12.20;;;19.40;99.90;;;;;;5054288;28;20058;-85
2022/08/15 05:07:35;;;;;;;16.40;12.00;;;19.40;99.90;;;;;;5064146;28;20081;-87
2022/08/15 05:10:02;;;;;;;16.10;12.10;;;19.40;99.90;;;;;;5051567;28;20095;-81
2022/08/15 05:12:28;;;;;;;14.95;13.10;;;19.40;99.90;;;;;;5072325;28;20048;-89
2022/08/15 05:14:56;;;;;;;18.25;14.00;;;19.40;99.90;;;;;;5064654;28;20036;-81
2022/08/15 05:17:22;;;;;;;17.65;14.32;;;19.50;99.90;;;;;;5054368;28;20072;-81
2022/08/15 05:19:47;;;;;;;17.60;14.93;;;19.50;99.90;;;;;;5072160;28;20468;-86
2022/08/15 05:22:16;;;;;;;20.60;14.18;;;19.60;99.90;;;;;;5072192;28;20048;-80
2022/08/15 05:24:42;;;;;;;18.73;14.43;;;19.60;99.90;;;;;;5053381;28;20128;-79
2022/08/15 05:27:07;;;;;;;20.70;16.15;;;19.70;99.90;;;;;;5066042;28;20119;-85
2022/08/15 05:29:33;;;;;;;17.30;14.63;;;19.70;99.90;;;;;;5072319;28;20467;-89
2022/08/15 05:31:59;;;;;;;18.98;16.60;;;19.80;99.90;;;;;;5064069;28;20052;-84
2022/08/15 05:34:25;;;;;;;19.80;15.57;;;19.80;99.90;;;;;;5072254;28;20049;-90
2022/08/15 05:36:51;;;;;;;19.65;16.10;;;20.00;99.90;;;;;;5062230;28;20049;-87
2022/08/15 05:39:25;;;;;;;17.00;15.00;;;19.90;99.90;;;;;;5072504;28;20040;-88
2022/08/15 05:42:08;;;;;;;17.33;15.52;;;19.90;99.90;;;;;;5052103;28;20048;-85
2022/08/15 05:44:52;;;;;;;20.90;14.68;;;19.90;99.90;;;;;;5072077;28;20055;-86
2022/08/15 05:47:35;;;;;;;21.60;16.42;;;20.00;99.90;;;;;;5065269;28;20068;-81
2022/08/15 05:50:06;;;;;;;20.25;16.20;;;20.10;99.90;;;;;;5071465;28;20036;-87
2022/08/15 05:52:50;;;;;;;17.58;14.80;;;20.10;99.90;;;;;;5071562;28;20491;-86
2022/08/15 05:55:25;;;;;;;21.02;15.38;;;20.20;99.90;;;;;;5064516;28;20041;-87
2022/08/15 05:58:09;;;;;;;19.10;15.63;;;20.20;99.90;;;;;;5069910;28;20117;-85
2022/08/15 06:00:37;;;;;;;17.30;15.23;;;20.20;99.90;;;;;;5072246;28;20106;-85
2022/08/15 06:03:29;;;;;;;17.80;14.85;;;20.30;99.90;;;;;;5071299;28;20047;-78
2022/08/15 06:05:59;;;;;;;20.67;14.98;;;20.40;99.90;;;;;;5067939;28;20578;-83
2022/08/15 06:08:28;;;;;;;20.23;14.82;;;20.40;99.90;;;;;;5071488;28;20506;-87
2022/08/15 06:11:02;;;;;;;23.35;16.02;;;20.50;99.90;;;;;;5068488;28;20387;-86
2022/08/15 06:13:40;;;;;;;17.20;15.32;;;20.50;99.90;;;;;;5071243;28;20032;-83
2022/08/15 06:16:40;;;;;;;25.65;15.98;;;20.60;99.90;;;;;;5071248;28;20101;-83
2022/08/15 06:19:14;;;;;;;16.92;15.15;;;20.70;99.90;;;;;;5053273;28;20053;-88
2022/08/15 06:21:42;;;;;;;;;;;20.80;99.90;;;;;;5041152;28;20126;-86
2022/08/15 06:24:26;;;;;;;18.58;14.98;;;20.80;99.90;;;;;;5061362;28;19921;-85
2022/08/15 06:26:52;;;;;;;16.30;14.60;;;20.80;99.90;;;;;;5069544;28;20115;-83
2022/08/15 06:29:45;;;;;;;16.48;14.75;;;20.90;99.90;;;;;;5070730;28;20165;-83
2022/08/15 06:32:16;;;;;;;17.77;15.20;;;21.00;99.90;;;;;;5064281;28;20053;-84
2022/08/15 06:35:10;;;;;;;20.25;15.00;;;21.10;99.90;;;;;;5053328;28;20064;-83
2022/08/15 06:37:44;;;;;;;18.23;14.68;;;21.10;99.90;;;;;;5064252;28;20048;-83
2022/08/15 06:40:23;;;;;;;15.50;14.00;;;21.20;99.90;;;;;;5033787;28;20056;-84
2022/08/15 06:42:49;;;;;;;15.30;13.70;;;21.30;99.90;;;;;;5052399;28;20492;-82
2022/08/15 06:45:22;;;;;;;16.08;14.02;;;21.30;99.90;;;;;;5070763;28;20097;-87
2022/08/15 06:47:53;;;;;;;14.77;13.27;;;21.40;99.90;;;;;;5052383;28;20048;-83
2022/08/15 06:50:26;;;;;;;16.27;14.48;;;21.50;99.90;;;;;;5051982;28;20061;-83
2022/08/15 06:52:58;;;;;;;18.30;13.00;;;21.60;99.90;;;;;;5070190;28;20044;-82
2022/08/15 06:55:29;;;;;;;13.50;12.00;;;21.70;99.90;;;;;;5052264;28;20057;-81
2022/08/15 06:58:09;;;;;;;16.10;13.57;;;21.80;99.90;;;;;;5070047;28;20507;-82
2022/08/15 07:00:45;;;;;;;14.10;12.50;;;21.80;99.90;;;;;;5063666;28;20040;-81
2022/08/15 07:03:35;;;;;;;13.93;12.43;;;21.90;99.90;;;;;;5069940;28;20052;-81
2022/08/15 07:06:02;;;;;;;15.35;12.75;;;22.10;99.90;;;;;;5065439;28;20095;-82
2022/08/15 07:08:33;;;;;;;19.42;13.15;;;22.20;99.90;;;;;;5062898;28;20051;-81
2022/08/15 07:11:16;;;;;;;14.07;12.65;;;22.30;99.90;;;;;;5070178;28;20048;-81
2022/08/15 07:13:51;;;;;;;16.95;13.07;;;22.40;99.90;;;;;;5044018;28;20040;-81
2022/08/15 07:16:24;;;;;;;15.32;12.75;;;22.40;99.90;;;;;;5068893;28;20097;-81
2022/08/15 07:18:56;;;;;;;12.85;11.45;;;22.50;99.90;;;;;;5041121;28;20053;-83
2022/08/15 07:21:22;;;;;;;13.48;12.02;;;22.60;99.90;;;;;;5070626;28;20041;-82
2022/08/15 07:24:12;;;;;;;13.55;11.63;;;22.70;99.90;;;;;;5066460;28;20095;-81
2022/08/15 07:26:51;;;;;;;18.45;11.32;;;22.90;99.90;;;;;;5063302;28;20169;-78
2022/08/15 07:29:28;;;;;;;18.25;12.18;;;23.00;99.90;;;;;;5069509;28;20048;-82
2022/08/15 07:32:21;;;;;;;13.02;11.60;;;23.10;99.90;;;;;;5051818;28;20510;-81
2022/08/15 07:35:12;;;;;;;13.50;11.13;;;23.20;99.90;;;;;;5056708;28;20048;-82
2022/08/15 07:38:16;;;;;;;11.63;10.40;;;23.40;99.90;;;;;;5068229;28;20055;-82
2022/08/15 07:40:43;;;;;;;13.90;10.88;;;23.50;99.90;;;;;;4990135;28;20053;-79
2022/08/15 07:43:28;;;;;;;16.17;10.98;;;23.70;99.90;;;;;;4971485;28;20072;-80
2022/08/15 07:46:18;;;;;;;12.98;9.90;;;23.80;99.90;;;;;;4971211;28;20050;-80
2022/08/15 07:49:07;;;;;;;17.77;10.57;;;23.90;99.90;;;;;;4988075;28;20699;-81
2022/08/15 07:52:17;;;;;;;11.40;10.25;;;23.90;99.90;;;;;;4995588;28;20046;-80
2022/08/15 07:54:47;;;;;;;12.30;9.95;;;24.10;99.90;;;;;;4922262;29;20056;-82
2022/08/15 07:57:36;;;;;;;12.20;10.18;;;24.20;99.90;;;;;;4930162;29;20101;-83
2022/08/15 08:00:11;;;;;;;10.90;9.73;;;24.40;99.90;;;;;;4899135;29;20056;-83
2022/08/15 08:02:43;;;;;;;14.05;10.27;;;24.50;99.90;;;;;;4886974;29;20057;-79
2022/08/15 08:05:11;;;;;;;13.25;10.05;;;24.50;99.90;;;;;;4882977;29;20052;-80
2022/08/15 08:07:43;;;;;;;12.25;9.60;;;24.50;99.90;;;;;;4911395;29;20111;-87
2022/08/15 08:10:31;;;;;;;15.02;10.38;;;24.50;99.90;;;;;;4897454;29;20052;-79
2022/08/15 08:13:16;;;;;;;13.18;9.57;;;24.60;99.90;;;;;;4883563;29;20059;-79
2022/08/15 08:15:53;;;;;;;11.13;9.13;;;24.60;99.90;;;;;;4943747;29;20098;-78
2022/08/15 08:18:41;;;;;;;11.93;8.82;;;24.60;99.90;;;;;;4948089;29;20051;-79
2022/08/15 08:21:13;;;;;;;10.27;9.18;;;24.60;99.90;;;;;;4956344;28;20141;-80
2022/08/15 08:23:45;;;;;;;10.20;9.10;;;24.70;99.90;;;;;;4952808;28;20089;-79
2022/08/15 08:26:30;;;;;;;12.75;9.23;;;24.60;99.90;;;;;;4951091;28;20066;-81
2022/08/15 08:29:33;;;;;;;11.10;8.65;;;24.70;99.90;;;;;;4948939;29;20086;-82
2022/08/15 08:32:03;;;;;;;10.70;8.93;;;24.70;99.90;;;;;;4978187;28;20756;-82
2022/08/15 08:35:03;;;;;;;13.45;8.88;;;24.80;99.90;;;;;;5018643;28;20050;-82
2022/08/15 08:37:52;;;;;;;14.43;8.60;;;24.70;99.90;;;;;;5038616;28;20069;-80
2022/08/15 08:43:13;;;;;;;12.40;8.18;;;24.80;99.90;;;;;;5068594;28;20060;-80
2022/08/15 08:45:53;;;;;;;11.00;8.10;;;24.90;99.90;;;;;;5060632;28;20510;-81
2022/08/15 08:48:25;;;;;;;13.70;8.63;;;24.90;99.90;;;;;;5067961;28;20056;-80
2022/08/15 08:51:08;;;;;;;10.88;8.52;;;25.00;99.90;;;;;;5068825;28;20084;-79
2022/08/15 08:53:50;;;;;;;10.10;8.90;;;25.10;99.90;;;;;;5050237;28;20741;-81
2022/08/15 08:56:39;;;;;;;14.50;9.07;;;25.20;99.90;;;;;;5068424;28;20109;-80
2022/08/15 08:59:10;;;;;;;13.15;8.02;;;25.30;99.90;;;;;;5063181;28;20091;-80
2022/08/15 09:01:37;;;;;;;15.73;8.70;;;25.40;99.90;;;;;;5037494;28;20048;-80
2022/08/15 09:04:11;;;;;;;10.75;8.32;;;25.40;99.90;;;;;;5037238;28;20044;-80
2022/08/15 09:06:40;;;;;;;10.98;8.32;;;25.40;99.90;;;;;;5050358;28;20140;-80
2022/08/15 09:09:31;;;;;;;9.13;7.38;;;25.50;99.90;;;;;;5067676;28;20043;-79
2022/08/15 09:14:58;;;;;;;10.75;7.97;;;25.70;99.90;;;;;;5050764;28;20491;-80
2022/08/15 09:17:26;;;;;;;13.02;8.32;;;25.80;99.90;;;;;;5069094;28;20048;-80
2022/08/15 09:20:11;;;;;;;12.30;7.38;;;26.10;99.90;;;;;;5050829;28;20060;-79
2022/08/15 09:22:36;;;;;;;11.95;7.78;;;26.40;99.90;;;;;;5069317;28;20045;-80
2022/08/15 09:25:02;;;;;;;13.70;8.23;;;26.60;99.90;;;;;;5068989;28;20048;-82
2022/08/15 09:27:40;;;;;;;10.57;7.53;;;26.80;99.90;;;;;;5067877;28;20613;-80
2022/08/15 09:30:09;;;;;;;10.45;7.80;;;27.10;99.90;;;;;;5068911;28;20067;-84
2022/08/15 09:32:45;;;;;;;10.52;8.27;;;27.30;99.90;;;;;;5053806;28;20135;-81
2022/08/15 09:35:14;;;;;;;10.10;8.15;;;27.50;99.90;;;;;;5072278;28;20045;-81
2022/08/15 09:38:17;;;;;;;11.52;7.95;;;27.60;99.90;;;;;;5072472;28;20559;-80
2022/08/15 09:41:15;;;;;;;11.15;7.88;;;27.90;99.90;;;;;;5053270;28;20522;-80
2022/08/15 09:44:19;;;;;;;14.35;6.50;;;27.90;99.90;;;;;;5071586;28;20048;-88
2022/08/15 09:46:49;;;;;;;9.85;7.70;;;28.30;99.90;;;;;;5079928;22;20053;-75
2022/08/15 09:50:00;;;;;;;10.27;6.80;;;28.50;99.90;;;;;;5057586;28;20048;-77
2022/08/15 09:52:49;;;;;;;9.63;7.15;;;28.60;99.90;;;;;;5073965;28;20053;-80
2022/08/15 09:55:27;;;;;;;14.30;7.30;;;28.90;99.90;;;;;;5073148;28;20059;-78
2022/08/15 09:57:55;;;;;;;14.70;7.07;;;29.00;99.90;;;;;;5079217;28;20088;-79
2022/08/15 10:00:39;;;;;;;10.10;7.10;;;29.10;99.90;;;;;;5079863;28;20446;-78
2022/08/15 10:03:22;;;;;;;9.90;7.38;;;29.30;99.90;;;;;;5061143;28;20079;-79
2022/08/15 10:06:08;;;;;;;8.87;6.97;;;29.30;98.30;;;;;;5062371;28;20079;-77
2022/08/15 10:08:55;;;;;;;14.43;6.68;;;29.60;99.50;;;;;;5082236;28;20044;-78
2022/08/15 10:11:39;;;;;;;8.45;7.25;;;29.90;99.10;;;;;;5073447;28;20059;-78
2022/08/15 10:14:14;;;;;;;10.80;6.30;;;30.10;99.00;;;;;;5060974;28;20143;-88
2022/08/15 10:16:40;;;;;;;7.95;6.97;;;30.20;99.40;;;;;;5079514;28;20102;-80
2022/08/15 10:19:25;;;;;;;13.50;7.30;;;30.20;99.10;;;;;;5073975;28;20040;-76
2022/08/15 10:21:52;;;;;;;9.02;7.45;;;30.20;98.50;;;;;;5080537;28;20058;-84
2022/08/15 10:24:38;;;;;;;18.55;8.20;;;30.20;98.70;;;;;;5064982;28;20131;-80
2022/08/15 10:27:07;;;;;;;16.98;8.43;;;30.10;97.80;;;;;;5083811;28;20048;-76
2022/08/15 10:29:35;;;;;;;8.60;7.72;;;29.90;97.30;;;;;;5073979;28;20044;-77
2022/08/15 10:32:02;;;;;;;18.83;9.13;;;29.70;97.90;;;;;;5083956;28;20532;-75
2022/08/15 10:34:37;;;;;;;72.60;24.25;;;29.50;97.40;;;;;;5080099;28;20045;-74
2022/08/15 10:37:15;;;;;;;9.15;7.30;;;29.30;97.50;;;;;;5078819;28;20044;-75
2022/08/15 10:40:02;;;;;;;12.45;8.65;;;29.30;98.00;;;;;;5079555;28;20132;-75
2022/08/15 10:43:02;;;;;;;13.60;9.68;;;29.10;98.10;;;;;;5072685;28;20420;-75
2022/08/15 10:45:48;;;;;;;10.98;9.23;;;29.00;98.20;;;;;;5072233;28;20052;-74
2022/08/15 10:48:30;;;;;;;12.05;8.82;;;29.00;98.10;;;;;;5077936;28;20094;-76
2022/08/15 10:51:08;;;;;;;11.70;9.35;;;28.90;98.30;;;;;;5085467;28;20075;-74
2022/08/15 10:54:01;;;;;;;10.05;8.93;;;28.80;98.00;;;;;;5079078;28;20044;-74
2022/08/15 10:56:32;;;;;;;16.30;10.85;;;28.80;98.50;;;;;;5075612;28;20040;-78
2022/08/15 10:59:08;;;;;;;15.15;10.73;;;28.60;98.40;;;;;;5079246;28;20098;-74
2022/08/15 11:01:38;;;;;;;13.27;11.02;;;28.50;98.80;;;;;;5070042;28;20579;-74
2022/08/15 11:04:15;;;;;;;11.63;9.27;;;28.30;98.70;;;;;;5063469;28;20047;-77
2022/08/15 11:06:46;;;;;;;12.38;10.00;;;28.20;99.00;;;;;;5091162;28;20487;-78
2022/08/15 11:09:18;;;;;;;14.25;10.27;;;28.20;99.10;;;;;;5070459;28;20068;-77
2022/08/15 11:12:00;;;;;;;14.77;9.57;;;28.00;99.10;;;;;;5079008;28;20064;-76
2022/08/15 11:14:34;;;;;;;11.73;9.48;;;28.00;99.50;;;;;;5054446;28;20055;-77
2022/08/15 11:17:01;;;;;;;12.20;9.93;;;27.80;99.40;;;;;;5059483;28;20487;-77
2022/08/15 11:19:33;;;;;;;11.77;9.27;;;27.70;99.40;;;;;;5076453;28;20123;-76
2022/08/15 11:22:05;;;;;;;12.32;8.63;;;27.60;99.50;;;;;;5071845;28;20041;-76
2022/08/15 11:24:38;;;;;;;13.70;8.88;;;27.40;99.70;;;;;;5078082;28;20400;-76
2022/08/15 11:27:25;;;;;;;10.95;9.70;;;27.40;99.90;;;;;;5077747;28;20493;-77
2022/08/15 11:29:53;;;;;;;16.85;10.25;;;27.30;99.90;;;;;;5077968;28;20071;-77
2022/08/15 11:32:34;;;;;;;16.10;9.70;;;27.10;99.90;;;;;;5059179;28;20053;-78
2022/08/15 11:35:07;;;;;;;11.98;9.32;;;27.00;99.90;;;;;;5052800;28;20147;-77
2022/08/15 11:37:41;;;;;;;20.95;10.30;;;26.80;99.90;;;;;;5069100;28;20036;-77
2022/08/15 11:40:17;;;;;;;10.05;8.95;;;26.70;99.90;;;;;;5084760;28;20097;-77
2022/08/15 11:42:43;;;;;;;12.13;9.13;;;26.50;99.90;;;;;;5073320;28;20079;-77
2022/08/15 11:45:15;;;;;;;13.30;9.20;;;26.40;99.90;;;;;;5080007;28;20728;-76
2022/08/15 11:47:48;;;;;;;13.32;9.77;;;26.30;99.90;;;;;;5081711;28;20055;-77
2022/08/15 11:50:36;;;;;;;14.65;9.43;;;26.20;99.90;;;;;;5054253;28;20618;-78
2022/08/15 11:53:05;;;;;;;10.02;8.25;;;26.20;99.90;;;;;;5061311;28;20043;-76
2022/08/15 11:55:32;;;;;;;12.73;8.40;;;26.00;99.90;;;;;;5077111;28;20072;-77
2022/08/15 11:58:20;;;;;;;10.45;8.25;;;25.90;99.90;;;;;;5056410;28;20169;-77
2022/08/15 12:00:50;;;;;;;13.27;8.63;;;25.80;99.90;;;;;;5080609;28;20052;-77
2022/08/15 12:03:17;;;;;;;12.27;8.18;;;25.60;99.90;;;;;;5071892;28;20053;-78
2022/08/15 12:05:43;;;;;;;10.63;7.93;;;25.50;99.90;;;;;;5062652;28;20680;-78
2022/08/15 12:08:09;;;;;;;13.65;8.90;;;25.40;99.90;;;;;;5079037;28;20122;-79
2022/08/15 12:10:39;;;;;;;12.48;9.18;;;25.30;99.90;;;;;;5073529;28;20048;-79
2022/08/15 12:13:07;;;;;;;11.10;9.93;;;25.20;99.90;;;;;;5079364;28;20150;-79
2022/08/15 12:15:33;;;;;;;13.50;8.85;;;25.10;99.90;;;;;;5077418;28;20430;-79
2022/08/15 12:18:10;;;;;;;15.10;9.05;;;25.00;99.90;;;;;;5076732;28;20044;-79
2022/08/15 12:20:47;;;;;;;12.13;9.07;;;25.00;99.90;;;;;;5074274;28;20510;-79
2022/08/15 12:23:29;;;;;;;10.63;9.40;;;24.90;99.90;;;;;;5053208;28;20044;-77
2022/08/15 12:26:18;;;;;;;13.50;9.73;;;24.90;99.90;;;;;;5070518;28;20075;-79
2022/08/15 12:28:44;;;;;;;16.15;11.13;;;24.90;99.90;;;;;;5062432;28;20158;-78
2022/08/15 12:31:24;;;;;;;13.90;11.77;;;24.90;99.90;;;;;;5041952;28;20060;-78
2022/08/15 12:34:09;;;;;;;13.65;12.18;;;24.90;99.90;;;;;;5089905;28;20044;-78
2022/08/15 12:36:34;;;;;;;;;;;25.00;99.90;;;;;;5052969;28;20052;-78
2022/08/15 12:39:00;;;;;;;18.48;12.77;;;25.10;99.90;;;;;;5058676;28;19928;-77
2022/08/15 12:41:26;;;;;;;13.75;12.30;;;25.20;99.90;;;;;;5066799;28;20043;-77
2022/08/15 12:43:52;;;;;;;12.32;10.80;;;25.30;99.90;;;;;;5054443;28;20499;-78
2022/08/15 12:46:18;;;;;;;15.02;10.13;;;25.40;99.90;;;;;;5089640;28;20136;-78
2022/08/15 12:48:46;;;;;;;11.85;9.55;;;25.50;99.90;;;;;;5071260;28;20147;-77
2022/08/15 12:51:13;;;;;;;10.13;8.07;;;25.60;99.90;;;;;;5071390;28;20052;-76
2022/08/15 12:53:39;;;;;;;9.50;6.88;;;25.80;99.90;;;;;;5089686;28;20079;-78
2022/08/15 12:56:08;;;;;;;7.78;6.10;;;25.90;99.90;;;;;;5071291;28;20840;-77
2022/08/15 12:58:35;;;;;;;9.02;6.25;;;26.00;99.90;;;;;;5089245;28;20097;-78
2022/08/15 13:01:03;;;;;;;13.02;6.00;;;26.20;99.90;;;;;;5089519;28;20059;-77
2022/08/15 13:03:30;;;;;;;7.47;6.35;;;26.20;99.90;;;;;;5089526;28;20089;-78
2022/08/15 13:06:03;;;;;;;7.13;6.22;;;26.40;99.90;;;;;;5089673;28;20120;-77
2022/08/15 13:08:28;;;;;;;8.02;6.00;;;26.40;99.90;;;;;;5093542;28;20131;-77
2022/08/15 13:10:54;;;;;;;8.52;4.97;;;26.50;99.90;;;;;;5093380;28;20147;-77
2022/08/15 13:13:21;;;;;;;8.18;5.68;;;26.60;99.90;;;;;;5093020;28;20096;-78